Time;durP1;ratioP1;P1;durP2;ratioP2;P2;SDS_P1;SDS_P2;PMS_P1;PMS_P2;Temp;Humidity;BMP_temperature;BMP_pressure;BME280_temperature;BME280_humidity;BME280_pressure;Samples;Min_cycle;Max_cycle;Signal;HPM_P1;HPM_P2
2023/03/31 14:34:11;;;;;;;;;;;7.70;99.90;;;;;;2591478;54;22650;-69
2023/03/31 20:43:30;;;;;;;;;;;18.20;99.90;;;;;;2614808;54;25586;-64
2023/03/31 20:46:02;;;;;;;;;;;12.00;99.90;;;;;;2618805;54;19947;-64
2023/03/31 20:48:32;;;;;;;;;;;11.90;99.90;;;;;;2619980;54;19950;-64
2023/03/31 20:51:02;;;;;;;;;;;11.90;99.90;;;;;;2618905;54;19947;-63
2023/03/31 20:53:33;;;;;;;;;;;11.90;99.90;;;;;;2624595;47;19963;-63
2023/03/31 20:56:03;;;;;;;;;;;11.90;99.90;;;;;;2618496;54;19947;-63
2023/03/31 20:58:36;;;;;;;;;;;11.90;99.90;;;;;;2618795;39;20366;-62
2023/03/31 21:01:06;;;;;;;;;;;11.90;99.90;;;;;;2616915;47;19973;-62
2023/03/31 21:03:36;;;;;;;;;;;11.90;99.90;;;;;;2617947;46;20053;-62
2023/03/31 21:06:07;;;;;;;;;;;11.90;99.90;;;;;;2617601;54;19956;-62
2023/03/31 21:08:40;;;;;;;;;;;11.90;99.90;;;;;;2617850;47;19946;-62
2023/03/31 21:11:11;;;;;;;;;;;11.90;99.90;;;;;;2617603;47;19946;-64
2023/03/31 21:13:44;;;;;;;;;;;11.90;99.90;;;;;;2617566;54;20043;-63
2023/03/31 21:16:13;;;;;;;;;;;11.90;99.90;;;;;;2618011;46;19966;-63
2023/03/31 21:18:44;;;;;;;;;;;11.90;99.90;;;;;;2617496;54;19953;-63
2023/03/31 21:21:14;;;;;;;;;;;11.80;99.90;;;;;;2617958;54;19950;-63
2023/03/31 21:23:44;;;;;;;;;;;11.80;99.90;;;;;;2617688;54;19953;-63
2023/03/31 21:26:15;;;;;;;;;;;11.80;99.90;;;;;;2617591;54;20271;-63
2023/03/31 21:28:47;;;;;;;;;;;11.80;99.90;;;;;;2617656;54;19955;-62
2023/03/31 21:31:18;;;;;;;;;;;11.90;99.90;;;;;;2616114;54;20701;-62
2023/03/31 21:33:48;;;;;;;;;;;11.80;99.90;;;;;;2619926;39;20353;-62
2023/03/31 21:36:20;;;;;;;;;;;11.90;99.90;;;;;;2625663;54;19955;-63
2023/03/31 21:38:50;;;;;;;;;;;11.90;99.90;;;;;;2627151;39;20584;-63
2023/03/31 21:41:21;;;;;;;;;;;11.90;99.90;;;;;;2623829;54;19970;-63
2023/03/31 21:43:54;;;;;;;;;;;11.90;99.90;;;;;;2619233;54;19939;-62
2023/03/31 21:46:25;;;;;;;;;;;11.90;99.90;;;;;;2617435;54;19951;-62
2023/03/31 21:48:56;;;;;;;;;;;11.90;99.90;;;;;;2617792;47;20023;-61
2023/03/31 21:51:27;;;;;;;;;;;11.90;99.90;;;;;;2617886;39;20371;-61
2023/03/31 21:53:57;;;;;;;;;;;11.90;99.90;;;;;;2617698;46;19966;-61
2023/03/31 21:56:27;;;;;;;;;;;11.90;99.90;;;;;;2617835;54;19947;-62
2023/03/31 21:59:03;;;;;;;;;;;11.90;99.90;;;;;;2618448;54;19943;-63
2023/03/31 22:01:33;;;;;;;;;;;11.90;99.90;;;;;;2617534;54;19946;-63
2023/03/31 22:04:02;;;;;;;;;;;12.10;99.90;;;;;;2613837;54;19954;-63
2023/03/31 22:06:33;;;;;;;;;;;12.00;99.90;;;;;;2615918;54;19954;-62
2023/03/31 22:09:03;;;;;;;;;;;12.00;99.90;;;;;;2616066;47;19946;-63
2023/03/31 22:11:32;;;;;;;;;;;12.00;99.90;;;;;;2618496;54;19950;-64
2023/03/31 22:14:05;;;;;;;;;;;12.00;99.90;;;;;;2619350;54;19950;-63
2023/03/31 22:16:35;;;;;;;;;;;12.00;99.90;;;;;;2621140;54;19954;-62
2023/03/31 22:19:05;;;;;;;;;;;12.00;99.90;;;;;;2622225;54;19947;-63
2023/03/31 22:21:35;;;;;;;;;;;12.10;99.90;;;;;;2620481;54;19943;-62
2023/03/31 22:24:05;;;;;;;;;;;12.00;99.90;;;;;;2617953;54;19943;-63
2023/03/31 22:26:35;;;;;;;;;;;12.00;99.90;;;;;;2617107;54;19951;-62
2023/03/31 22:29:07;;;;;;;;;;;12.00;99.90;;;;;;2617681;54;19954;-62
2023/03/31 22:31:36;;;;;;;;;;;12.00;99.90;;;;;;2617810;54;19953;-61
2023/03/31 22:34:06;;;;;;;;;;;12.10;99.90;;;;;;2616940;54;19956;-62
2023/03/31 22:36:35;;;;;;;;;;;12.10;99.90;;;;;;2617049;47;19999;-62
2023/03/31 22:39:05;;;;;;;;;;;12.00;99.90;;;;;;2616802;54;19950;-63
2023/03/31 22:41:35;;;;;;;;;;;12.00;99.90;;;;;;2617707;54;19990;-63
2023/03/31 22:44:07;;;;;;;;;;;12.10;99.90;;;;;;2628588;54;19961;-62
2023/03/31 22:46:37;;;;;;;;;;;12.10;99.90;;;;;;2627481;54;19959;-66
2023/03/31 22:49:07;;;;;;;;;;;12.10;99.90;;;;;;2627754;54;19943;-61
2023/03/31 22:51:39;;;;;;;;;;;12.00;99.90;;;;;;2628780;54;19952;-62
2023/03/31 22:54:09;;;;;;;;;;;12.10;99.90;;;;;;2620277;54;19946;-62
2023/03/31 22:56:39;;;;;;;;;;;12.00;99.90;;;;;;2623843;47;19950;-64
2023/03/31 22:59:11;;;;;;;;;;;12.00;99.90;;;;;;2623058;54;19946;-62
2023/03/31 23:01:41;;;;;;;;;;;12.00;99.90;;;;;;2623097;54;19950;-62
2023/03/31 23:04:10;;;;;;;;;;;12.00;99.90;;;;;;2623991;54;19954;-62
2023/03/31 23:06:40;;;;;;;;;;;12.00;99.90;;;;;;2623231;54;19951;-61
2023/03/31 23:09:10;;;;;;;;;;;12.00;99.90;;;;;;2621645;54;19946;-62
2023/03/31 23:11:39;;;;;;;;;;;12.00;99.90;;;;;;2617272;46;19969;-62
2023/03/31 23:14:11;;;;;;;;;;;11.90;99.90;;;;;;2617105;54;19955;-62
2023/03/31 23:16:41;;;;;;;;;;;12.00;99.90;;;;;;2620106;54;19953;-63
2023/03/31 23:19:11;;;;;;;;;;;11.90;99.90;;;;;;2622076;54;20503;-63
2023/03/31 23:21:41;;;;;;;;;;;11.90;99.90;;;;;;2621409;54;19967;-63
2023/03/31 23:24:11;;;;;;;;;;;11.90;99.90;;;;;;2618664;54;19934;-63
2023/03/31 23:26:40;;;;;;;;;;;11.90;99.90;;;;;;2616990;54;19965;-62
2023/03/31 23:29:13;;;;;;;;;;;11.80;99.90;;;;;;2618361;39;20010;-62
2023/03/31 23:31:42;;;;;;;;;;;11.90;99.90;;;;;;2619372;47;19935;-62
2023/03/31 23:34:13;;;;;;;;;;;11.80;99.90;;;;;;2620795;54;19946;-62
2023/03/31 23:36:43;;;;;;;;;;;11.80;99.90;;;;;;2617883;54;19954;-62
2023/03/31 23:39:12;;;;;;;;;;;11.90;99.90;;;;;;2619460;39;20339;-61
2023/03/31 23:41:42;;;;;;;;;;;11.80;99.90;;;;;;2617225;47;19954;-61
2023/03/31 23:44:14;;;;;;;;;;;11.80;99.90;;;;;;2617422;47;19954;-61
2023/03/31 23:46:44;;;;;;;;;;;11.80;99.90;;;;;;2617278;52;20466;-61
2023/03/31 23:49:13;;;;;;;;;;;11.90;99.90;;;;;;2617394;54;19958;-61
2023/03/31 23:51:43;;;;;;;;;;;11.90;99.90;;;;;;2617568;54;19953;-61
2023/03/31 23:54:12;;;;;;;;;;;11.90;99.90;;;;;;2616425;54;20057;-61
2023/03/31 23:56:42;;;;;;;;;;;11.90;99.90;;;;;;2617074;47;19947;-61
2023/03/31 23:59:14;;;;;;;;;;;11.90;99.90;;;;;;2617688;54;19946;-62
